Airfield :
LOGIN :

Register | Disclaimer

   EN    FR    IT 

 










Legend :    VFR   Marginal VFR   IFR   Intensive IFR   Very Intensive IFR
Visi :
Ceiling :
>= 8 km
>= 3000ft
5 to 8 km
1000 to 3000 ft
1500m to 5 km
500 to 1000 ft
800 to 1500m
200 to 500 ft
< 800m
< 200 ft
Symbols :   Thunderstorms  Fog  Heavy snow  Heavy precipitations  Wind > 20 kt
SIGMETs :     Misc.  Thunderstorms  Icing  Turbulence  Mountain Waves  Volcanic Ashes







- Airport Elevation : 995 ft
- IATA code : KTW


EPKT - Katowice

CURRENT METAR :
  • 181700Z 28007KT CAVOK 09/01 Q1020

EXPIRED METARs :
  • 181630Z 28009KT 9999 FEW046 11/01 Q1020
  • 181600Z 28014KT 9999 FEW046 12/00 Q1020
  • 181530Z 28015KT 9999 FEW046 12/01 Q1020
  • 181500Z 28013KT 9999 SCT046 13/02 Q1020
  • 181430Z 27017KT 9999 BKN046 13/03 Q1020

TAF TAF EPKT
Valid from the 18 at 12:00 until the 19 at 12:00 UTC


181130Z 1812/1912 27016KT 9999 SCT035
TEMPO 1812/1817 26020G35KT BKN025TCU
PROB30
TEMPO 1812/1817 SHRA BKN020CB
BECMG 1819/1822 26010KT
No reported NOTAMs for that airfield.



MET'MAP, your aeronautical weather chart ! - Copyright ORBIFLY December 2007 - Disclaimer

ORBIFLY MET'MAP TEAM :

Programming & Development : Alexandra Zaïnal
Concept & Development : Baudouin d'Aumeries
Co-Development & Prog : Marc-Olivier Méhu
Technical & hardware support : Manuel Goepfert

Contact : metmap@orbifly.com




SOURCES & CREDITS :

   NOAA